Time;durP1;ratioP1;P1;durP2;ratioP2;P2;SDS_P1;SDS_P2;PMS_P1;PMS_P2;Temp;Humidity;BMP_temperature;BMP_pressure;BME280_temperature;BME280_humidity;BME280_pressure;Samples;Min_cycle;Max_cycle;Signal;HPM_P1;HPM_P2
2023/10/08 00:02:05;;;;;;;7.47;2.30;;;;;;;;;;6206406;23;20707;-92
2023/10/08 00:04:37;;;;;;;7.20;1.97;;;;;;;;;;6204922;23;20429;-92
2023/10/08 00:07:03;;;;;;;5.03;2.43;;;;;;;;;;6204891;23;20438;-93
2023/10/08 00:09:35;;;;;;;5.20;3.03;;;;;;;;;;6204858;23;20928;-93
2023/10/08 00:12:01;;;;;;;4.37;2.60;;;;;;;;;;6205821;23;20678;-94
2023/10/08 00:14:29;;;;;;;4.20;2.90;;;;;;;;;;6207107;23;20394;-94
2023/10/08 00:16:57;;;;;;;9.27;3.53;;;;;;;;;;6179774;23;20397;-93
2023/10/08 00:19:24;;;;;;;9.87;3.47;;;;;;;;;;6205097;23;20371;-93
2023/10/08 00:21:53;;;;;;;4.23;2.80;;;;;;;;;;6170620;23;20388;-93
2023/10/08 00:24:26;;;;;;;5.23;2.53;;;;;;;;;;6144970;23;20490;-92
2023/10/08 00:26:54;;;;;;;5.87;3.00;;;;;;;;;;6148274;23;20408;-93
2023/10/08 00:29:21;;;;;;;5.90;2.93;;;;;;;;;;6145998;23;20415;-93
2023/10/08 00:31:49;;;;;;;17.47;9.60;;;;;;;;;;6145445;23;20428;-94
2023/10/08 00:34:16;;;;;;;3.50;2.43;;;;;;;;;;6138957;23;20517;-94
2023/10/08 00:36:43;;;;;;;5.40;2.40;;;;;;;;;;6139893;23;20389;-93
2023/10/08 00:39:26;;;;;;;4.07;2.53;;;;;;;;;;6138788;23;20417;-94
2023/10/08 00:41:59;;;;;;;6.40;2.33;;;;;;;;;;6141724;23;20919;-92
2023/10/08 00:44:29;;;;;;;7.03;3.90;;;;;;;;;;6140887;23;20488;-94
2023/10/08 00:46:56;;;;;;;6.20;2.40;;;;;;;;;;6140222;23;20427;-94
2023/10/08 00:49:42;;;;;;;4.40;2.60;;;;;;;;;;6140305;23;20475;-93
2023/10/08 00:54:56;;;;;;;6.20;2.23;;;;;;;;;;6197714;23;20414;-94
2023/10/08 00:57:23;;;;;;;6.67;3.60;;;;;;;;;;6177238;23;20359;-93
2023/10/08 00:59:53;;;;;;;4.00;2.60;;;;;;;;;;6176782;23;20442;-94
2023/10/08 01:02:26;;;;;;;4.50;2.93;;;;;;;;;;6177051;23;20381;-94
2023/10/08 01:04:54;;;;;;;7.37;3.27;;;;;;;;;;6182690;23;20423;-95
2023/10/08 01:07:20;;;;;;;3.93;2.00;;;;;;;;;;6174461;23;20367;-94
2023/10/08 01:09:58;;;;;;;4.90;2.40;;;;;;;;;;6197683;22;20442;-93
2023/10/08 01:12:33;;;;;;;5.40;3.40;;;;;;;;;;6208131;23;20416;-94
2023/10/08 01:15:23;;;;;;;7.17;3.13;;;;;;;;;;6209080;23;20414;-92
2023/10/08 01:17:58;;;;;;;4.60;2.53;;;;;;;;;;6210436;23;20476;-93
2023/10/08 01:20:37;;;;;;;4.37;2.73;;;;;;;;;;6209017;23;20699;-92
2023/10/08 01:23:27;;;;;;;9.40;3.40;;;;;;;;;;6208110;23;20374;-93
2023/10/08 01:26:14;;;;;;;5.20;2.77;;;;;;;;;;6134236;23;20441;-94
2023/10/08 01:28:42;;;;;;;6.90;3.80;;;;;;;;;;6111993;23;20516;-93
2023/10/08 01:31:12;;;;;;;3.83;2.40;;;;;;;;;;6112712;23;20422;-93
2023/10/08 01:33:46;;;;;;;4.07;2.20;;;;;;;;;;6113120;23;20863;-94
2023/10/08 01:36:16;;;;;;;6.07;3.20;;;;;;;;;;6112167;23;20384;-93
2023/10/08 01:38:48;;;;;;;4.33;2.30;;;;;;;;;;6116412;23;20378;-94
2023/10/08 01:41:25;;;;;;;5.60;2.70;;;;;;;;;;6111464;23;20442;-93
2023/10/08 01:43:52;;;;;;;3.57;2.70;;;;;;;;;;6113638;23;20473;-93
2023/10/08 01:46:21;;;;;;;5.43;2.90;;;;;;;;;;6110269;23;20453;-93
2023/10/08 01:48:52;;;;;;;4.67;3.30;;;;;;;;;;6111100;23;21416;-93
2023/10/08 01:51:25;;;;;;;5.00;2.30;;;;;;;;;;6112235;23;20420;-93
2023/10/08 01:53:57;;;;;;;4.93;2.40;;;;;;;;;;6117339;23;20429;-94
2023/10/08 01:56:24;;;;;;;5.60;3.27;;;;;;;;;;6110259;23;20405;-94
2023/10/08 01:58:50;;;;;;;4.30;2.47;;;;;;;;;;6111252;23;20373;-95
2023/10/08 02:01:21;;;;;;;5.23;2.80;;;;;;;;;;6112377;23;20386;-94
2023/10/08 02:03:48;;;;;;;5.73;2.77;;;;;;;;;;6219863;23;20373;-94
2023/10/08 02:06:14;;;;;;;5.27;2.90;;;;;;;;;;6257005;23;20480;-94
2023/10/08 02:08:43;;;;;;;3.83;2.03;;;;;;;;;;6236396;23;20370;-94
2023/10/08 02:11:12;;;;;;;4.63;2.07;;;;;;;;;;6232501;23;20582;-94
2023/10/08 02:13:38;;;;;;;4.57;2.63;;;;;;;;;;6207773;23;20397;-95
2023/10/08 02:16:04;;;;;;;5.63;2.90;;;;;;;;;;6173958;23;20958;-94
2023/10/08 02:18:30;;;;;;;8.03;2.20;;;;;;;;;;6151851;23;20471;-95
2023/10/08 02:20:58;;;;;;;5.87;2.20;;;;;;;;;;6152147;23;20455;-95
2023/10/08 02:23:24;;;;;;;8.87;2.50;;;;;;;;;;6174217;23;20575;-95
2023/10/08 02:25:54;;;;;;;3.87;2.30;;;;;;;;;;6150379;23;20443;-96
2023/10/08 02:31:25;;;;;;;5.07;2.80;;;;;;;;;;6172820;23;20446;-95
2023/10/08 02:33:54;;;;;;;5.97;2.60;;;;;;;;;;6148298;23;20407;-94
2023/10/08 02:36:20;;;;;;;4.87;2.40;;;;;;;;;;6147500;23;20411;-96
2023/10/08 02:38:49;;;;;;;5.40;2.20;;;;;;;;;;6145669;23;20399;-95
2023/10/08 02:41:24;;;;;;;3.63;2.13;;;;;;;;;;6175706;23;20439;-96
2023/10/08 02:43:51;;;;;;;3.60;2.23;;;;;;;;;;6236720;23;20461;-96
2023/10/08 02:46:18;;;;;;;7.00;2.60;;;;;;;;;;6211956;23;20457;-95
2023/10/08 02:48:44;;;;;;;4.60;2.20;;;;;;;;;;6211750;23;20370;-96
2023/10/08 02:51:14;;;;;;;7.13;2.77;;;;;;;;;;6214452;23;20378;-96
2023/10/08 02:53:43;;;;;;;8.50;3.40;;;;;;;;;;6211882;23;20383;-94
2023/10/08 02:56:13;;;;;;;6.60;2.60;;;;;;;;;;6216683;23;20886;-95
2023/10/08 02:58:43;;;;;;;4.70;2.50;;;;;;;;;;6212446;23;20413;-95
2023/10/08 03:01:12;;;;;;;6.00;1.97;;;;;;;;;;6237738;23;20381;-95
2023/10/08 03:03:41;;;;;;;3.67;2.10;;;;;;;;;;6213048;23;20401;-96
2023/10/08 03:06:14;;;;;;;4.27;2.87;;;;;;;;;;6212702;23;20426;-93
2023/10/08 03:08:41;;;;;;;4.17;2.67;;;;;;;;;;6214915;23;20447;-94
2023/10/08 03:11:25;;;;;;;3.87;2.10;;;;;;;;;;6217159;23;20812;-95
2023/10/08 03:13:56;;;;;;;3.03;2.37;;;;;;;;;;6216153;23;20418;-94
2023/10/08 03:16:28;;;;;;;5.27;3.10;;;;;;;;;;6212588;23;20394;-95
2023/10/08 03:18:57;;;;;;;4.57;2.00;;;;;;;;;;6212462;23;20448;-94
2023/10/08 03:24:12;;;;;;;4.67;2.70;;;;;;;;;;6240111;23;20416;-94
2023/10/08 03:26:45;;;;;;;6.90;3.47;;;;;;;;;;6216559;23;20366;-95
2023/10/08 03:29:18;;;;;;;6.33;2.40;;;;;;;;;;6214065;23;20371;-95
2023/10/08 03:34:13;;;;;;;6.63;2.40;;;;;;;;;;6238477;22;20366;-94
2023/10/08 03:36:46;;;;;;;5.67;2.10;;;;;;;;;;6212155;23;20426;-95
2023/10/08 03:39:15;;;;;;;3.23;2.13;;;;;;;;;;6214338;23;20420;-96
2023/10/08 03:41:41;;;;;;;5.37;2.43;;;;;;;;;;6217801;23;20445;-95
2023/10/08 03:44:16;;;;;;;4.23;2.50;;;;;;;;;;6239002;23;20364;-96
2023/10/08 03:46:43;;;;;;;6.93;2.70;;;;;;;;;;6240229;22;20417;-96
2023/10/08 03:51:51;;;;;;;4.33;2.40;;;;;;;;;;6265359;22;20350;-96
2023/10/08 03:54:18;;;;;;;5.40;2.40;;;;;;;;;;6238186;22;20397;-95
2023/10/08 03:56:51;;;;;;;3.30;1.93;;;;;;;;;;6238328;23;20730;-94
2023/10/08 03:59:20;;;;;;;2.73;1.93;;;;;;;;;;6238481;23;20401;-95
2023/10/08 04:04:48;;;;;;;3.70;2.30;;;;;;;;;;6260570;22;20433;-96
2023/10/08 04:07:24;;;;;;;6.00;3.23;;;;;;;;;;6263016;22;20394;-94
2023/10/08 04:10:04;;;;;;;5.03;2.40;;;;;;;;;;6212328;23;20362;-95
2023/10/08 04:12:34;;;;;;;5.23;2.27;;;;;;;;;;6212908;23;20468;-93
2023/10/08 04:15:24;;;;;;;4.50;1.90;;;;;;;;;;6210948;22;20430;-96
2023/10/08 04:17:50;;;;;;;3.73;2.50;;;;;;;;;;6197810;23;20396;-95
2023/10/08 04:23:01;;;;;;;5.40;2.70;;;;;;;;;;6176597;23;20382;-93
2023/10/08 04:25:28;;;;;;;6.20;2.13;;;;;;;;;;6148511;23;20509;-94
2023/10/08 04:27:59;;;;;;;5.10;2.50;;;;;;;;;;6151200;23;20467;-96
2023/10/08 04:30:34;;;;;;;4.43;2.40;;;;;;;;;;6150631;23;20380;-95
2023/10/08 04:33:36;;;;;;;4.40;2.53;;;;;;;;;;6155685;23;20374;-94
2023/10/08 04:35:55;;;;;;;2.67;1.80;;;;;;;;;;6181009;23;20416;-95
2023/10/08 04:38:22;;;;;;;3.40;1.80;;;;;;;;;;6150983;23;20379;-94
2023/10/08 04:40:51;;;;;;;2.60;2.30;;;;;;;;;;6152475;23;20403;-94
2023/10/08 04:43:25;;;;;;;3.63;2.67;;;;;;;;;;6173211;23;20365;-94
2023/10/08 04:46:08;;;;;;;3.37;2.33;;;;;;;;;;6123196;23;20519;-96
2023/10/08 04:48:38;;;;;;;4.43;2.70;;;;;;;;;;6099912;23;20391;-93
2023/10/08 04:51:04;;;;;;;10.47;3.37;;;;;;;;;;6122040;23;20376;-94
2023/10/08 04:53:36;;;;;;;3.73;2.27;;;;;;;;;;6121160;23;20389;-93
2023/10/08 04:56:13;;;;;;;5.63;2.50;;;;;;;;;;6145429;23;20406;-94
2023/10/08 04:58:40;;;;;;;5.17;2.27;;;;;;;;;;6172516;23;20456;-94
2023/10/08 05:01:18;;;;;;;3.10;2.27;;;;;;;;;;6174515;23;20721;-96
2023/10/08 05:09:47;;;;;;;10.30;2.40;;;;;;;;;;6169721;23;20419;-96
2023/10/08 05:17:57;;;;;;;4.20;2.60;;;;;;;;;;6213251;23;20467;-95
2023/10/08 05:23:20;;;;;;;4.23;2.20;;;;;;;;;;6199101;23;20379;-95
2023/10/08 05:41:55;;;;;;;9.13;3.07;;;;;;;;;;6268075;22;20697;-94
2023/10/08 05:57:35;;;;;;;4.37;2.10;;;;;;;;;;6263123;22;20477;-94
2023/10/08 06:08:21;;;;;;;5.77;2.20;;;;;;;;;;6292240;22;20980;-94
2023/10/08 06:13:04;;;;;;;3.27;2.10;;;;;;;;;;6177864;23;20427;-94
2023/10/08 06:15:48;;;;;;;6.10;3.07;;;;;;;;;;6172452;23;20364;-93
2023/10/08 06:18:25;;;;;;;4.30;2.90;;;;;;;;;;6172726;23;20465;-94
2023/10/08 06:20:54;;;;;;;7.10;2.70;;;;;;;;;;6115766;23;20457;-95
2023/10/08 06:23:22;;;;;;;5.70;2.63;;;;;;;;;;6113322;23;20374;-93
2023/10/08 06:25:56;;;;;;;6.10;2.23;;;;;;;;;;6140484;23;20569;-94
2023/10/08 06:28:25;;;;;;;4.03;2.57;;;;;;;;;;6110274;23;20386;-93
2023/10/08 06:30:55;;;;;;;4.57;2.33;;;;;;;;;;6109905;23;20444;-95
2023/10/08 06:33:22;;;;;;;6.60;2.50;;;;;;;;;;6110823;23;20543;-94
2023/10/08 06:36:13;;;;;;;7.70;3.30;;;;;;;;;;6111057;23;20854;-96
2023/10/08 06:38:39;;;;;;;8.10;3.50;;;;;;;;;;6108824;23;20465;-93
2023/10/08 06:41:09;;;;;;;4.97;2.77;;;;;;;;;;6142976;23;20399;-94
2023/10/08 06:43:36;;;;;;;4.70;2.73;;;;;;;;;;6168830;23;20449;-95
2023/10/08 06:46:03;;;;;;;5.20;2.90;;;;;;;;;;6169693;23;20439;-93
2023/10/08 06:48:29;;;;;;;3.20;2.13;;;;;;;;;;6171554;23;20399;-93
2023/10/08 06:51:07;;;;;;;8.73;3.03;;;;;;;;;;6185201;22;20436;-94
2023/10/08 06:53:33;;;;;;;6.00;3.80;;;;;;;;;;6241076;22;20381;-95
2023/10/08 06:56:04;;;;;;;7.53;4.13;;;;;;;;;;6245884;22;20369;-94
2023/10/08 06:58:32;;;;;;;5.57;3.97;;;;;;;;;;6238657;22;20404;-94
2023/10/08 07:00:58;;;;;;;6.63;3.93;;;;;;;;;;6237644;22;20444;-92
2023/10/08 07:03:24;;;;;;;11.17;3.93;;;;;;;;;;6237457;22;20385;-94
2023/10/08 07:06:00;;;;;;;6.27;3.37;;;;;;;;;;6237311;22;20585;-94
2023/10/08 07:08:35;;;;;;;4.07;3.10;;;;;;;;;;6262569;22;20526;-93
2023/10/08 07:11:11;;;;;;;5.70;3.67;;;;;;;;;;6243267;22;20383;-93
2023/10/08 07:13:39;;;;;;;6.87;2.60;;;;;;;;;;6238054;22;20464;-92
2023/10/08 07:16:06;;;;;;;7.10;3.17;;;;;;;;;;6238040;22;20385;-93
2023/10/08 07:18:33;;;;;;;9.13;3.53;;;;;;;;;;6236291;22;20437;-93
2023/10/08 07:21:11;;;;;;;7.43;3.50;;;;;;;;;;6236627;22;20408;-93
2023/10/08 07:23:49;;;;;;;7.83;5.30;;;;;;;;;;6239190;22;20474;-94
2023/10/08 07:26:17;;;;;;;9.40;5.17;;;;;;;;;;6240357;22;20431;-94
2023/10/08 07:28:43;;;;;;;4.90;4.40;;;;;;;;;;6234092;22;20421;-94
2023/10/08 07:31:22;;;;;;;9.93;3.80;;;;;;;;;;6238273;22;20405;-93
2023/10/08 07:34:15;;;;;;;5.03;2.57;;;;;;;;;;6235921;22;20409;-93
2023/10/08 07:36:41;;;;;;;8.90;3.60;;;;;;;;;;6236769;22;20390;-95
2023/10/08 07:39:09;;;;;;;7.53;3.33;;;;;;;;;;6233693;22;20401;-94
2023/10/08 07:41:35;;;;;;;7.77;3.23;;;;;;;;;;6241178;22;20711;-95
2023/10/08 07:44:01;;;;;;;6.20;2.83;;;;;;;;;;6235059;22;20381;-94
2023/10/08 07:46:27;;;;;;;2.53;2.30;;;;;;;;;;6241500;22;20427;-95
2023/10/08 07:48:54;;;;;;;7.63;3.17;;;;;;;;;;6231488;23;20397;-96
2023/10/08 07:51:23;;;;;;;7.53;3.50;;;;;;;;;;6230313;23;20404;-95
2023/10/08 07:53:54;;;;;;;5.13;4.10;;;;;;;;;;6230016;23;20393;-95
2023/10/08 07:56:20;;;;;;;6.70;3.37;;;;;;;;;;6230452;23;20415;-95
2023/10/08 07:58:47;;;;;;;5.57;2.50;;;;;;;;;;6230079;23;20378;-94
2023/10/08 08:01:14;;;;;;;4.40;3.03;;;;;;;;;;6238399;23;20383;-95
2023/10/08 08:03:41;;;;;;;4.37;2.97;;;;;;;;;;6232767;23;20386;-95
2023/10/08 08:06:07;;;;;;;6.20;2.47;;;;;;;;;;6233528;23;20418;-92
2023/10/08 08:08:34;;;;;;;5.23;2.90;;;;;;;;;;6231576;23;20428;-94
2023/10/08 08:11:11;;;;;;;9.40;3.60;;;;;;;;;;6235521;23;20492;-94
2023/10/08 08:13:37;;;;;;;9.20;2.67;;;;;;;;;;6235696;23;20396;-93
2023/10/08 08:16:16;;;;;;;4.60;2.47;;;;;;;;;;6238957;22;20410;-93
2023/10/08 08:18:51;;;;;;;4.37;2.57;;;;;;;;;;6237924;22;20398;-94
2023/10/08 08:21:19;;;;;;;5.50;2.50;;;;;;;;;;6264852;22;20392;-94
2023/10/08 08:23:48;;;;;;;4.43;2.23;;;;;;;;;;6240814;22;20715;-94
2023/10/08 08:26:39;;;;;;;4.40;2.43;;;;;;;;;;6242593;22;20409;-94
2023/10/08 08:29:08;;;;;;;6.10;2.80;;;;;;;;;;6243310;22;20389;-93
2023/10/08 08:31:35;;;;;;;5.17;3.47;;;;;;;;;;6239010;22;20385;-91
2023/10/08 08:34:03;;;;;;;3.80;2.20;;;;;;;;;;6240449;22;20408;-91
2023/10/08 08:36:29;;;;;;;3.53;1.93;;;;;;;;;;6243082;22;20419;-91
2023/10/08 08:38:55;;;;;;;9.13;2.93;;;;;;;;;;6239843;22;20388;-92
2023/10/08 08:41:22;;;;;;;3.87;2.87;;;;;;;;;;6238893;22;20377;-91
2023/10/08 08:43:49;;;;;;;3.13;2.00;;;;;;;;;;6238752;22;20915;-91
2023/10/08 08:46:39;;;;;;;5.10;2.30;;;;;;;;;;6233712;22;20893;-91
2023/10/08 08:49:11;;;;;;;5.07;2.90;;;;;;;;;;6244767;22;20395;-91
2023/10/08 08:51:37;;;;;;;6.80;2.80;;;;;;;;;;6269417;22;20366;-91
2023/10/08 08:54:07;;;;;;;4.50;2.33;;;;;;;;;;6241068;22;20385;-90
2023/10/08 08:56:38;;;;;;;7.67;2.70;;;;;;;;;;6239471;22;20377;-91
2023/10/08 08:59:11;;;;;;;4.70;2.30;;;;;;;;;;6240434;22;20393;-91
2023/10/08 09:01:41;;;;;;;4.70;2.37;;;;;;;;;;6269971;22;20437;-90
2023/10/08 09:04:07;;;;;;;4.00;2.37;;;;;;;;;;6240200;22;20378;-92
2023/10/08 09:06:40;;;;;;;4.70;2.97;;;;;;;;;;6240349;22;20440;-91
2023/10/08 09:09:22;;;;;;;7.00;2.70;;;;;;;;;;6241241;22;20403;-93
2023/10/08 09:11:53;;;;;;;14.33;3.87;;;;;;;;;;6273543;22;20368;-90
2023/10/08 09:14:25;;;;;;;3.50;2.20;;;;;;;;;;6240832;22;20445;-91
2023/10/08 09:16:51;;;;;;;6.23;3.23;;;;;;;;;;6266144;22;20381;-91
2023/10/08 09:19:23;;;;;;;5.87;2.60;;;;;;;;;;6240932;22;20416;-91
2023/10/08 09:22:12;;;;;;;6.20;2.13;;;;;;;;;;6245297;22;20389;-93
2023/10/08 09:24:42;;;;;;;7.13;3.43;;;;;;;;;;6242768;22;20805;-91
2023/10/08 09:27:14;;;;;;;5.80;3.03;;;;;;;;;;6243185;22;20373;-91
2023/10/08 09:29:40;;;;;;;3.50;2.53;;;;;;;;;;6244298;22;20450;-91
2023/10/08 09:32:06;;;;;;;3.40;2.13;;;;;;;;;;6245182;22;20465;-90
2023/10/08 09:34:32;;;;;;;3.73;2.07;;;;;;;;;;6244015;22;20472;-91
2023/10/08 09:37:01;;;;;;;7.30;2.97;;;;;;;;;;6244795;22;20381;-91
2023/10/08 09:39:34;;;;;;;5.90;2.77;;;;;;;;;;6267993;22;20366;-90
2023/10/08 09:42:02;;;;;;;5.00;2.70;;;;;;;;;;6247396;22;20476;-90
2023/10/08 09:44:39;;;;;;;5.00;2.90;;;;;;;;;;6243518;22;20884;-90
2023/10/08 09:47:11;;;;;;;5.20;2.97;;;;;;;;;;6180225;23;20464;-91
2023/10/08 09:49:42;;;;;;;5.80;2.93;;;;;;;;;;6171949;23;20380;-91
2023/10/08 09:52:10;;;;;;;4.83;2.40;;;;;;;;;;6149737;23;21421;-94
2023/10/08 09:54:42;;;;;;;6.13;3.20;;;;;;;;;;6150619;23;20365;-93
2023/10/08 09:57:10;;;;;;;5.07;2.50;;;;;;;;;;6150108;23;20444;-94
2023/10/08 09:59:37;;;;;;;6.30;2.90;;;;;;;;;;6150958;23;20727;-94
2023/10/08 10:02:04;;;;;;;6.53;3.13;;;;;;;;;;6153164;23;20381;-95
2023/10/08 10:04:31;;;;;;;6.67;2.97;;;;;;;;;;6150322;23;20405;-94
2023/10/08 10:06:58;;;;;;;6.90;3.53;;;;;;;;;;6150739;23;20381;-96
2023/10/08 10:17:16;;;;;;;8.77;4.10;;;;;;;;;;6261286;22;20464;-93
2023/10/08 10:19:45;;;;;;;7.30;3.13;;;;;;;;;;6271490;22;20381;-94
2023/10/08 10:22:15;;;;;;;5.73;2.23;;;;;;;;;;6270806;22;20393;-93
2023/10/08 10:24:41;;;;;;;5.80;3.90;;;;;;;;;;6244830;22;20417;-92
2023/10/08 10:27:14;;;;;;;5.57;3.77;;;;;;;;;;6244644;22;20381;-94
2023/10/08 10:29:48;;;;;;;5.90;2.83;;;;;;;;;;6193806;22;20444;-95
2023/10/08 10:32:18;;;;;;;4.73;3.00;;;;;;;;;;6271218;22;20397;-94
2023/10/08 10:34:47;;;;;;;8.37;3.83;;;;;;;;;;6247162;22;20431;-95
2023/10/08 10:37:19;;;;;;;6.63;3.20;;;;;;;;;;6244659;22;20400;-94
2023/10/08 10:40:13;;;;;;;4.57;2.90;;;;;;;;;;6238890;22;20404;-92
2023/10/08 10:42:42;;;;;;;5.17;2.60;;;;;;;;;;6263534;22;20393;-93
2023/10/08 10:45:40;;;;;;;4.93;2.50;;;;;;;;;;6236380;22;20470;-94
2023/10/08 10:48:21;;;;;;;4.93;2.87;;;;;;;;;;6264308;22;20365;-93
2023/10/08 10:53:44;;;;;;;4.93;3.07;;;;;;;;;;6246024;22;20374;-92
2023/10/08 10:56:18;;;;;;;4.13;3.33;;;;;;;;;;6242884;22;20401;-94
2023/10/08 10:58:46;;;;;;;6.50;3.13;;;;;;;;;;6238588;22;20381;-92
2023/10/08 11:01:24;;;;;;;8.63;3.77;;;;;;;;;;6239026;22;20373;-93
2023/10/08 11:03:53;;;;;;;6.57;2.87;;;;;;;;;;6237098;22;20388;-92
2023/10/08 11:06:22;;;;;;;4.43;2.33;;;;;;;;;;6235736;22;20467;-90
2023/10/08 11:08:49;;;;;;;5.87;3.17;;;;;;;;;;6237138;22;20381;-91
2023/10/08 11:11:17;;;;;;;4.83;3.50;;;;;;;;;;6234440;22;20389;-89
2023/10/08 11:13:46;;;;;;;6.30;3.50;;;;;;;;;;6241658;22;20381;-92
2023/10/08 11:16:16;;;;;;;6.87;3.30;;;;;;;;;;6262949;22;20365;-92
2023/10/08 11:18:49;;;;;;;6.73;4.07;;;;;;;;;;6238504;22;20409;-92
2023/10/08 11:21:15;;;;;;;5.03;3.13;;;;;;;;;;6238137;22;20370;-92
2023/10/08 11:23:42;;;;;;;6.90;4.17;;;;;;;;;;6241414;22;20387;-92
2023/10/08 11:26:08;;;;;;;7.43;3.17;;;;;;;;;;6235757;22;20420;-91
2023/10/08 11:28:35;;;;;;;5.73;3.40;;;;;;;;;;6238933;22;20388;-92
2023/10/08 11:31:19;;;;;;;5.30;3.30;;;;;;;;;;6268846;22;20385;-92
2023/10/08 11:33:54;;;;;;;8.40;3.30;;;;;;;;;;6237222;22;20372;-90
2023/10/08 11:36:30;;;;;;;9.83;3.87;;;;;;;;;;6238781;22;20372;-91
2023/10/08 11:39:07;;;;;;;5.73;3.27;;;;;;;;;;6260689;22;20352;-92
2023/10/08 11:41:49;;;;;;;4.50;3.53;;;;;;;;;;6240840;22;20397;-92
2023/10/08 11:44:23;;;;;;;7.37;3.57;;;;;;;;;;6238738;22;20370;-92
2023/10/08 11:46:55;;;;;;;5.40;3.40;;;;;;;;;;6239831;22;20381;-92
2023/10/08 11:49:25;;;;;;;6.27;3.93;;;;;;;;;;6236960;22;20869;-92
2023/10/08 11:51:55;;;;;;;6.87;3.43;;;;;;;;;;6235795;22;20374;-92
2023/10/08 11:54:23;;;;;;;7.30;3.10;;;;;;;;;;6235978;22;20366;-93
2023/10/08 11:56:52;;;;;;;9.90;3.83;;;;;;;;;;6242452;22;20430;-93
2023/10/08 11:59:19;;;;;;;3.90;3.00;;;;;;;;;;6263940;22;20460;-93
2023/10/08 12:01:46;;;;;;;5.90;3.57;;;;;;;;;;6235405;22;20461;-92
2023/10/08 12:04:16;;;;;;;9.50;3.70;;;;;;;;;;6237560;22;20386;-93
2023/10/08 12:06:51;;;;;;;8.73;4.73;;;;;;;;;;6234705;22;20714;-93
2023/10/08 12:09:21;;;;;;;7.27;3.57;;;;;;;;;;6238838;22;20391;-94
2023/10/08 12:11:53;;;;;;;7.97;4.30;;;;;;;;;;6167181;23;20454;-93
2023/10/08 12:14:20;;;;;;;5.90;3.10;;;;;;;;;;6170503;23;20415;-94
2023/10/08 12:16:51;;;;;;;6.47;3.50;;;;;;;;;;6171895;23;20447;-94
2023/10/08 12:19:17;;;;;;;8.93;3.67;;;;;;;;;;6169769;23;20503;-94
2023/10/08 12:21:49;;;;;;;14.17;3.63;;;;;;;;;;6176246;23;20419;-94
2023/10/08 12:24:17;;;;;;;9.10;3.30;;;;;;;;;;6170835;23;20427;-93
2023/10/08 12:26:46;;;;;;;8.50;3.20;;;;;;;;;;6135559;23;20466;-93
2023/10/08 12:29:14;;;;;;;7.93;3.47;;;;;;;;;;6110816;23;20370;-94
2023/10/08 12:31:40;;;;;;;6.93;3.27;;;;;;;;;;6118763;23;20449;-93
2023/10/08 12:34:06;;;;;;;7.40;3.10;;;;;;;;;;6111344;23;20406;-93
2023/10/08 12:36:39;;;;;;;7.27;4.30;;;;;;;;;;6078054;23;20451;-93
2023/10/08 12:39:14;;;;;;;7.50;2.90;;;;;;;;;;6077592;23;20387;-93
2023/10/08 12:41:43;;;;;;;7.77;4.03;;;;;;;;;;6081905;23;20407;-93
2023/10/08 12:44:09;;;;;;;8.40;3.40;;;;;;;;;;6081154;23;20379;-93
2023/10/08 12:46:37;;;;;;;8.70;3.60;;;;;;;;;;6083495;23;20473;-90
2023/10/08 12:49:03;;;;;;;6.50;3.50;;;;;;;;;;6080902;23;20398;-92
2023/10/08 12:51:32;;;;;;;11.70;4.17;;;;;;;;;;6086541;23;20398;-93
2023/10/08 12:54:03;;;;;;;8.63;3.13;;;;;;;;;;6079491;23;20414;-93
2023/10/08 12:56:35;;;;;;;8.60;3.77;;;;;;;;;;6084612;23;20390;-94
2023/10/08 12:59:04;;;;;;;13.43;4.10;;;;;;;;;;6148046;23;20859;-92
2023/10/08 13:01:31;;;;;;;11.77;3.50;;;;;;;;;;6147668;23;20394;-95
2023/10/08 13:04:00;;;;;;;10.63;4.03;;;;;;;;;;6147400;23;20392;-93
2023/10/08 13:09:09;;;;;;;7.33;3.30;;;;;;;;;;6236876;22;20882;-93
2023/10/08 13:11:38;;;;;;;8.20;3.27;;;;;;;;;;6207528;23;20371;-92
2023/10/08 13:14:04;;;;;;;9.73;3.03;;;;;;;;;;6205730;23;20387;-93
2023/10/08 13:16:36;;;;;;;12.03;3.70;;;;;;;;;;6143839;23;20392;-93
2023/10/08 13:19:03;;;;;;;14.07;3.30;;;;;;;;;;6141837;23;20420;-94
2023/10/08 13:21:32;;;;;;;11.93;3.73;;;;;;;;;;6169280;23;20393;-92
2023/10/08 13:24:02;;;;;;;7.57;3.40;;;;;;;;;;6182782;22;20450;-94
2023/10/08 13:26:30;;;;;;;8.90;3.50;;;;;;;;;;6238149;22;20432;-93
2023/10/08 13:28:56;;;;;;;7.17;2.80;;;;;;;;;;6245749;22;20393;-93
2023/10/08 13:31:23;;;;;;;9.90;3.40;;;;;;;;;;6241797;22;20492;-93
2023/10/08 13:33:51;;;;;;;11.47;3.20;;;;;;;;;;6242898;22;20725;-91
2023/10/08 13:36:17;;;;;;;8.63;3.13;;;;;;;;;;6265708;22;20341;-93
2023/10/08 13:38:45;;;;;;;9.43;3.30;;;;;;;;;;6243241;22;20374;-93
2023/10/08 13:41:20;;;;;;;7.70;3.27;;;;;;;;;;6240341;22;20378;-93
2023/10/08 13:43:53;;;;;;;11.73;4.30;;;;;;;;;;6244661;22;20396;-93
2023/10/08 13:46:22;;;;;;;8.87;4.03;;;;;;;;;;6263222;22;20425;-92
2023/10/08 13:48:48;;;;;;;7.27;4.60;;;;;;;;;;6243543;22;20408;-92
2023/10/08 13:51:20;;;;;;;7.60;3.33;;;;;;;;;;6240183;22;20409;-92
2023/10/08 13:53:53;;;;;;;13.60;3.10;;;;;;;;;;6273077;22;20380;-93
2023/10/08 13:56:26;;;;;;;8.30;3.40;;;;;;;;;;6265786;22;20385;-92
2023/10/08 13:59:03;;;;;;;8.90;3.30;;;;;;;;;;6244666;22;20399;-92
2023/10/08 14:01:33;;;;;;;6.83;2.80;;;;;;;;;;6267944;22;20353;-93
2023/10/08 14:04:05;;;;;;;9.23;3.53;;;;;;;;;;6242742;22;20357;-93
2023/10/08 14:06:31;;;;;;;12.97;3.47;;;;;;;;;;6240199;22;20401;-93
2023/10/08 14:09:00;;;;;;;6.60;3.47;;;;;;;;;;6244077;22;20377;-92
2023/10/08 14:11:30;;;;;;;9.97;4.03;;;;;;;;;;6263267;22;20369;-92
2023/10/08 14:13:56;;;;;;;9.83;3.73;;;;;;;;;;6243412;22;20413;-93
2023/10/08 14:16:28;;;;;;;8.77;2.90;;;;;;;;;;6237825;22;20380;-92
2023/10/08 14:18:54;;;;;;;9.43;3.70;;;;;;;;;;6242647;22;20698;-93
2023/10/08 14:21:24;;;;;;;10.80;3.63;;;;;;;;;;6236613;22;20392;-93
2023/10/08 14:23:56;;;;;;;10.30;3.30;;;;;;;;;;6240021;22;20381;-92
2023/10/08 14:26:22;;;;;;;5.80;3.73;;;;;;;;;;6237388;22;20443;-92
2023/10/08 14:28:54;;;;;;;9.50;3.33;;;;;;;;;;6268324;22;20438;-91
2023/10/08 14:31:24;;;;;;;10.23;3.57;;;;;;;;;;6238443;22;20476;-92
2023/10/08 14:34:05;;;;;;;6.43;3.70;;;;;;;;;;6240210;22;20448;-90
2023/10/08 14:44:50;;;;;;;8.67;3.67;;;;;;;;;;6266989;22;20439;-93
2023/10/08 14:47:35;;;;;;;5.77;3.00;;;;;;;;;;6240722;22;20397;-93
2023/10/08 14:50:04;;;;;;;9.67;3.97;;;;;;;;;;6263977;22;20365;-92
2023/10/08 14:52:33;;;;;;;7.47;3.23;;;;;;;;;;6239735;22;20378;-91
2023/10/08 14:54:59;;;;;;;12.60;3.50;;;;;;;;;;6236458;22;20362;-91
2023/10/08 14:57:26;;;;;;;7.10;3.30;;;;;;;;;;6238621;22;20442;-91
2023/10/08 14:59:52;;;;;;;8.10;3.23;;;;;;;;;;6238084;22;20931;-91
2023/10/08 15:02:42;;;;;;;8.43;4.17;;;;;;;;;;6239656;22;20421;-91
2023/10/08 15:05:11;;;;;;;7.00;3.77;;;;;;;;;;6260175;22;20468;-92
2023/10/08 15:07:37;;;;;;;8.70;4.50;;;;;;;;;;6239585;22;20369;-93
2023/10/08 15:10:03;;;;;;;11.23;3.47;;;;;;;;;;6235840;22;20385;-93
2023/10/08 15:12:34;;;;;;;7.80;3.67;;;;;;;;;;6235670;22;20381;-93
2023/10/08 15:15:12;;;;;;;5.70;3.33;;;;;;;;;;6239903;22;20746;-92
2023/10/08 15:17:43;;;;;;;9.80;3.90;;;;;;;;;;6266396;22;20353;-92
2023/10/08 15:20:14;;;;;;;5.47;3.00;;;;;;;;;;6241346;22;20381;-92
2023/10/08 15:22:42;;;;;;;13.13;3.73;;;;;;;;;;6235895;22;20393;-93
2023/10/08 15:25:10;;;;;;;7.63;3.87;;;;;;;;;;6237280;22;20518;-92
2023/10/08 15:27:44;;;;;;;7.73;3.23;;;;;;;;;;6237254;22;20420;-94
2023/10/08 15:30:12;;;;;;;11.10;2.73;;;;;;;;;;6202695;23;20387;-93
2023/10/08 15:32:48;;;;;;;6.93;3.13;;;;;;;;;;6178649;23;20387;-93
2023/10/08 15:35:19;;;;;;;12.03;2.87;;;;;;;;;;6175971;23;20371;-94
2023/10/08 15:37:54;;;;;;;8.10;2.23;;;;;;;;;;6210450;23;20374;-93
2023/10/08 15:40:20;;;;;;;10.20;3.17;;;;;;;;;;6173833;23;20414;-90
2023/10/08 15:42:51;;;;;;;7.80;4.00;;;;;;;;;;6213180;23;20374;-96
2023/10/08 15:45:20;;;;;;;9.13;3.47;;;;;;;;;;6214414;23;20435;-96
2023/10/08 15:47:54;;;;;;;4.40;2.90;;;;;;;;;;6141930;23;20390;-96
2023/10/08 16:24:20;;;;;;;13.10;4.63;;;;;;;;;;6275322;22;20441;-93
2023/10/08 16:26:46;;;;;;;10.23;6.00;;;;;;;;;;6239805;22;21119;-94
2023/10/08 16:29:12;;;;;;;10.27;6.67;;;;;;;;;;6263200;22;20382;-89
2023/10/08 16:31:41;;;;;;;8.57;5.00;;;;;;;;;;6259775;22;20373;-89
2023/10/08 16:34:08;;;;;;;11.43;5.77;;;;;;;;;;6237809;22;20373;-90
2023/10/08 16:36:35;;;;;;;10.93;4.43;;;;;;;;;;6238565;22;20384;-91
2023/10/08 16:39:02;;;;;;;6.63;3.27;;;;;;;;;;6234467;22;20918;-89
2023/10/08 16:41:29;;;;;;;6.97;3.60;;;;;;;;;;6240693;22;20420;-88
2023/10/08 16:43:55;;;;;;;9.70;5.20;;;;;;;;;;6288449;22;20385;-89
2023/10/08 16:46:21;;;;;;;8.37;4.10;;;;;;;;;;6236491;22;20447;-89
2023/10/08 16:48:48;;;;;;;7.97;4.60;;;;;;;;;;6232023;22;20381;-89
2023/10/08 16:51:18;;;;;;;6.40;4.00;;;;;;;;;;6233611;22;20448;-89
2023/10/08 16:53:46;;;;;;;7.80;4.80;;;;;;;;;;6232821;22;20373;-90
2023/10/08 16:56:13;;;;;;;8.10;4.53;;;;;;;;;;6233967;22;20373;-88
2023/10/08 16:58:39;;;;;;;8.10;3.93;;;;;;;;;;6233064;22;20465;-90
2023/10/08 17:01:09;;;;;;;10.17;5.47;;;;;;;;;;6259951;22;20357;-90
2023/10/08 17:03:36;;;;;;;9.00;4.63;;;;;;;;;;6259692;22;20487;-90
2023/10/08 17:06:07;;;;;;;6.93;4.10;;;;;;;;;;6259588;22;20447;-88
2023/10/08 17:08:36;;;;;;;6.37;4.00;;;;;;;;;;6264862;22;20386;-89
2023/10/08 17:13:43;;;;;;;5.93;4.17;;;;;;;;;;6280213;22;20920;-88